createdAt,value
2023-05-24T00:00:56.801Z,3.33
2023-05-24T00:03:25.114Z,3.33
2023-05-24T00:05:54.961Z,4.03
2023-05-24T00:08:23.140Z,3.63
2023-05-24T00:10:51.621Z,3.70
2023-05-24T00:13:20.683Z,3.77
2023-05-24T00:15:49.257Z,3.30
2023-05-24T00:18:19.034Z,4.10
2023-05-24T00:20:47.909Z,4.37
2023-05-24T00:23:18.208Z,3.27
2023-05-24T00:25:46.614Z,3.77
2023-05-24T00:28:14.982Z,3.63
2023-05-24T00:30:43.729Z,3.47
2023-05-24T00:33:13.918Z,3.40
2023-05-24T00:35:42.719Z,3.57
2023-05-24T00:38:11.290Z,3.43
2023-05-24T00:40:41.344Z,4.10
2023-05-24T00:43:09.901Z,3.70
2023-05-24T00:45:38.405Z,3.67
2023-05-24T00:48:07.077Z,3.70
2023-05-24T00:50:36.425Z,3.50
2023-05-24T00:53:05.577Z,3.53
2023-05-24T00:55:36.792Z,3.43
2023-05-24T00:58:07.155Z,4.03
2023-05-24T01:00:36.062Z,3.40
2023-05-24T01:03:05.459Z,3.83
2023-05-24T01:05:34.019Z,3.70
2023-05-24T01:08:12.199Z,3.93
2023-05-24T01:10:52.625Z,3.90
2023-05-24T01:13:29.305Z,3.73
2023-05-24T01:16:02.954Z,3.93
2023-05-24T01:18:35.925Z,3.90
2023-05-24T01:21:21.369Z,3.90
2023-05-24T01:24:03.052Z,4.10
2023-05-24T01:26:44.825Z,4.53
2023-05-24T01:29:16.442Z,3.53
2023-05-24T01:31:45.526Z,4.00
2023-05-24T01:34:14.794Z,3.90
2023-05-24T01:36:43.059Z,3.73
2023-05-24T01:39:12.261Z,3.90
2023-05-24T01:41:45.243Z,3.90
2023-05-24T01:44:27.137Z,4.00
2023-05-24T01:47:03.600Z,4.40
2023-05-24T01:49:35.834Z,3.73
2023-05-24T01:52:07.857Z,4.03
2023-05-24T01:54:40.960Z,5.07
2023-05-24T01:57:11.627Z,3.73
2023-05-24T01:59:43.688Z,4.40
2023-05-24T02:02:12.882Z,3.83
2023-05-24T02:04:41.764Z,4.00
2023-05-24T02:07:11.177Z,3.70
2023-05-24T02:09:43.525Z,4.87
2023-05-24T02:12:13.082Z,3.50
2023-05-24T02:14:43.089Z,3.67
2023-05-24T02:17:11.985Z,3.70
2023-05-24T02:19:40.466Z,4.20
2023-05-24T02:22:09.302Z,3.90
2023-05-24T02:24:44.703Z,5.17
2023-05-24T02:27:13.980Z,4.20
2023-05-24T02:29:43.835Z,3.73
2023-05-24T02:32:13.177Z,4.10
2023-05-24T02:34:44.587Z,3.70
2023-05-24T02:37:15.379Z,4.27
2023-05-24T02:39:43.695Z,4.60
2023-05-24T02:42:12.406Z,3.63
2023-05-24T02:44:42.625Z,4.00
2023-05-24T02:47:12.662Z,4.47
2023-05-24T02:49:40.833Z,4.07
2023-05-24T02:52:10.511Z,3.87
2023-05-24T02:54:38.696Z,3.60
2023-05-24T02:57:08.189Z,3.77
2023-05-24T02:59:36.947Z,4.30
2023-05-24T03:02:05.483Z,4.20
2023-05-24T03:04:35.591Z,4.37
2023-05-24T03:07:04.195Z,3.70
2023-05-24T03:09:32.486Z,4.03
2023-05-24T03:12:00.741Z,3.77
2023-05-24T03:14:29.050Z,4.60
2023-05-24T03:16:57.209Z,4.07
2023-05-24T03:19:25.662Z,3.90
2023-05-24T03:21:55.299Z,3.80
2023-05-24T03:24:23.463Z,4.33
2023-05-24T03:26:51.644Z,3.47
2023-05-24T03:29:19.834Z,3.70
2023-05-24T03:31:48.265Z,3.10
2023-05-24T03:34:18.324Z,3.97
2023-05-24T03:36:46.618Z,4.50
2023-05-24T03:39:17.069Z,3.90
2023-05-24T03:41:45.348Z,3.70
2023-05-24T03:44:14.015Z,3.80
2023-05-24T03:46:42.338Z,4.00
2023-05-24T03:49:10.590Z,4.20
2023-05-24T03:51:38.755Z,4.10
2023-05-24T03:54:07.342Z,4.53
2023-05-24T03:56:48.619Z,3.97
2023-05-24T03:59:16.971Z,4.60
2023-05-24T04:01:45.271Z,4.43
2023-05-24T04:04:13.456Z,4.00
2023-05-24T04:06:42.074Z,4.03
2023-05-24T04:09:10.307Z,4.10
2023-05-24T04:11:40.373Z,4.00
2023-05-24T04:14:08.929Z,4.53
2023-05-24T04:16:39.903Z,4.17
2023-05-24T04:19:08.175Z,3.83
2023-05-24T04:21:36.763Z,4.17
2023-05-24T04:24:05.356Z,4.47
2023-05-24T04:26:35.209Z,4.50
2023-05-24T04:29:05.130Z,4.47
2023-05-24T04:31:34.442Z,4.30
2023-05-24T04:34:04.508Z,4.43
2023-05-24T04:36:35.656Z,4.00
2023-05-24T04:39:05.260Z,4.33
2023-05-24T04:41:35.577Z,4.57
2023-05-24T04:44:05.220Z,4.27
2023-05-24T04:46:36.191Z,4.83
2023-05-24T04:49:05.809Z,4.80
2023-05-24T04:51:34.833Z,4.50
2023-05-24T04:54:08.770Z,5.07
2023-05-24T04:56:38.517Z,4.53
2023-05-24T04:59:10.055Z,4.73
2023-05-24T05:01:38.309Z,6.87
2023-05-24T05:04:07.537Z,5.97
2023-05-24T05:06:38.897Z,6.10
2023-05-24T05:09:09.565Z,5.37
2023-05-24T05:11:38.163Z,5.27
2023-05-24T05:14:09.923Z,6.90
2023-05-24T05:16:38.819Z,7.30
2023-05-24T05:19:07.250Z,8.47
2023-05-24T05:21:36.578Z,7.17
2023-05-24T05:24:04.924Z,7.00
2023-05-24T05:26:33.399Z,7.60
2023-05-24T05:29:01.628Z,6.63
2023-05-24T05:31:31.780Z,8.70
2023-05-24T05:34:00.676Z,7.90
2023-05-24T05:36:29.284Z,8.23
2023-05-24T05:38:58.013Z,8.83
2023-05-24T05:41:26.439Z,8.80
2023-05-24T05:43:54.681Z,9.10
2023-05-24T05:46:23.083Z,7.07
2023-05-24T05:48:52.673Z,6.47
2023-05-24T05:51:21.309Z,5.67
2023-05-24T05:53:49.541Z,6.00
2023-05-24T05:56:18.328Z,5.77
2023-05-24T05:58:46.576Z,5.80
2023-05-24T06:01:14.909Z,4.80
2023-05-24T06:03:43.409Z,4.17
2023-05-24T06:06:13.310Z,4.10
2023-05-24T06:08:41.929Z,3.73
2023-05-24T06:11:10.233Z,3.77
2023-05-24T06:13:38.470Z,4.43
2023-05-24T06:16:08.625Z,3.53
2023-05-24T06:18:37.048Z,4.03
2023-05-24T06:21:05.627Z,4.13
2023-05-24T06:23:35.198Z,4.03
2023-05-24T06:26:03.547Z,3.97
2023-05-24T06:28:31.901Z,3.90
2023-05-24T06:31:00.242Z,4.20
2023-05-24T06:33:30.124Z,3.53
2023-05-24T06:35:58.376Z,3.97
2023-05-24T06:38:27.977Z,3.63
2023-05-24T06:40:57.650Z,3.10
2023-05-24T06:43:25.774Z,3.77
2023-05-24T06:45:54.036Z,3.63
2023-05-24T06:48:22.815Z,3.20
2023-05-24T06:50:51.170Z,3.20
2023-05-24T06:53:19.824Z,3.30
2023-05-24T06:55:47.980Z,3.10
2023-05-24T06:58:18.530Z,3.10
2023-05-24T07:00:47.700Z,3.23
2023-05-24T07:03:15.948Z,3.23
2023-05-24T07:05:44.048Z,3.37
2023-05-24T07:08:12.254Z,3.30
2023-05-24T07:10:40.610Z,3.43
2023-05-24T07:13:09.562Z,3.10
2023-05-24T07:15:39.383Z,3.40
2023-05-24T07:18:07.881Z,3.30
2023-05-24T07:20:36.271Z,3.40
2023-05-24T07:23:05.045Z,3.10
2023-05-24T07:25:35.930Z,3.47
2023-05-24T07:28:04.120Z,3.27
2023-05-24T07:30:46.501Z,3.37
2023-05-24T07:33:16.936Z,2.73
2023-05-24T07:35:51.407Z,3.10
2023-05-24T07:38:19.874Z,3.00
2023-05-24T07:40:48.276Z,3.33
2023-05-24T07:43:17.224Z,3.00
2023-05-24T07:45:45.628Z,3.20
2023-05-24T07:48:15.945Z,2.93
2023-05-24T07:50:48.878Z,3.30
2023-05-24T07:53:17.809Z,2.67
2023-05-24T07:55:46.681Z,2.97
2023-05-24T07:58:15.234Z,3.60
2023-05-24T08:00:44.140Z,3.00
2023-05-24T08:03:14.868Z,3.70
2023-05-24T08:05:44.880Z,3.60
2023-05-24T08:08:14.382Z,3.10
2023-05-24T08:10:42.607Z,2.93
2023-05-24T08:13:11.049Z,3.07
2023-05-24T08:15:39.238Z,3.10
2023-05-24T08:18:07.814Z,2.90
2023-05-24T08:20:36.721Z,3.43
2023-05-24T08:23:06.517Z,3.00
2023-05-24T08:25:34.689Z,2.90
2023-05-24T08:28:03.537Z,2.60
2023-05-24T08:30:32.424Z,2.90
2023-05-24T08:33:00.879Z,2.70
2023-05-24T08:35:29.402Z,3.00
2023-05-24T08:37:58.027Z,2.53
2023-05-24T08:40:27.984Z,2.73
2023-05-24T08:43:01.336Z,2.43
2023-05-24T08:45:31.911Z,2.50
2023-05-24T08:48:02.371Z,3.13
2023-05-24T08:50:33.638Z,3.20
2023-05-24T08:53:02.947Z,2.43
2023-05-24T08:55:33.630Z,3.57
2023-05-24T08:58:02.242Z,2.90
2023-05-24T09:00:30.598Z,2.80
2023-05-24T09:03:00.269Z,2.90
2023-05-24T09:05:30.367Z,2.90
2023-05-24T09:08:02.226Z,2.60
2023-05-24T09:10:45.020Z,2.70
2023-05-24T09:13:21.112Z,2.63
2023-05-24T09:15:49.402Z,3.10
2023-05-24T09:18:17.825Z,2.90
2023-05-24T09:20:46.579Z,2.97
2023-05-24T09:23:29.544Z,2.60
2023-05-24T09:25:59.655Z,3.10
2023-05-24T09:28:28.416Z,2.70
2023-05-24T09:31:02.810Z,2.97
2023-05-24T09:33:34.963Z,3.13
2023-05-24T09:36:05.105Z,3.33
2023-05-24T09:38:33.974Z,3.10
2023-05-24T09:41:10.512Z,2.87
2023-05-24T09:43:49.548Z,3.53
2023-05-24T09:46:23.584Z,3.33
2023-05-24T09:48:59.293Z,2.93
2023-05-24T09:51:28.817Z,3.30
2023-05-24T09:53:58.859Z,2.90
2023-05-24T09:56:29.235Z,3.20
2023-05-24T09:58:58.179Z,3.10
2023-05-24T10:01:27.035Z,3.20
2023-05-24T10:03:56.300Z,3.23
2023-05-24T10:06:25.788Z,3.47
2023-05-24T10:08:55.841Z,3.13
2023-05-24T10:11:24.438Z,3.10
2023-05-24T10:13:54.859Z,3.27
2023-05-24T10:16:23.166Z,3.23
2023-05-24T10:18:51.841Z,3.30
2023-05-24T10:21:23.748Z,3.20
2023-05-24T10:23:54.558Z,3.43
2023-05-24T10:26:26.261Z,2.90
2023-05-24T10:29:02.135Z,3.07
2023-05-24T10:31:34.880Z,3.33
2023-05-24T10:34:08.257Z,3.47
2023-05-24T10:36:40.679Z,3.53
2023-05-24T10:39:12.543Z,3.00
2023-05-24T10:41:42.359Z,3.30
2023-05-24T10:44:19.603Z,3.50
2023-05-24T10:47:10.654Z,3.10
2023-05-24T10:49:40.736Z,3.40
2023-05-24T10:52:10.567Z,3.13
2023-05-24T10:54:44.774Z,3.30
2023-05-24T10:57:32.778Z,3.50
2023-05-24T11:03:04.307Z,2.97
2023-05-24T11:05:38.048Z,3.20
2023-05-24T11:08:09.601Z,3.23
2023-05-24T11:10:38.931Z,3.50
2023-05-24T11:13:09.706Z,3.03
2023-05-24T11:15:40.586Z,3.37
2023-05-24T11:18:16.398Z,2.90
2023-05-24T11:20:45.863Z,3.43
2023-05-24T11:23:16.749Z,3.27
2023-05-24T11:25:46.460Z,2.90
2023-05-24T11:28:15.204Z,3.83
2023-05-24T11:30:46.506Z,3.60
2023-05-24T11:33:18.825Z,3.10
2023-05-24T11:35:47.482Z,3.37
2023-05-24T11:38:17.070Z,3.00
2023-05-24T11:40:48.800Z,3.37
2023-05-24T11:43:19.014Z,3.13
2023-05-24T11:45:51.442Z,3.10
2023-05-24T11:48:20.963Z,3.03
2023-05-24T11:50:50.568Z,3.47
2023-05-24T11:53:21.753Z,3.17
2023-05-24T11:55:51.499Z,3.50
2023-05-24T11:58:24.663Z,3.40
2023-05-24T12:00:54.248Z,3.50
2023-05-24T12:03:23.315Z,3.13
2023-05-24T12:05:52.928Z,3.43
2023-05-24T12:08:21.437Z,3.20
2023-05-24T12:10:51.804Z,3.33
2023-05-24T12:13:24.932Z,3.40
2023-05-24T12:15:56.828Z,3.33
2023-05-24T12:18:27.334Z,3.60
2023-05-24T12:20:55.885Z,3.37
2023-05-24T12:23:26.719Z,3.80
2023-05-24T12:26:00.060Z,3.83
2023-05-24T12:28:29.226Z,3.80
2023-05-24T12:30:59.171Z,3.50
2023-05-24T12:33:29.883Z,3.93
2023-05-24T12:35:58.782Z,3.40
2023-05-24T12:38:27.130Z,3.43
2023-05-24T12:41:11.511Z,4.13
2023-05-24T12:43:41.965Z,3.67
2023-05-24T12:46:13.432Z,3.70
2023-05-24T12:48:42.062Z,3.93
2023-05-24T12:51:11.348Z,3.40
2023-05-24T12:53:39.563Z,3.50
2023-05-24T12:56:08.604Z,3.80
2023-05-24T12:58:36.775Z,3.40
2023-05-24T13:01:05.524Z,3.60
2023-05-24T13:03:35.194Z,3.80
2023-05-24T13:06:03.369Z,3.40
2023-05-24T13:08:31.772Z,3.93
2023-05-24T13:10:59.908Z,3.30
2023-05-24T13:13:29.006Z,4.10
2023-05-24T13:15:57.726Z,3.73
2023-05-24T13:18:26.560Z,3.63
2023-05-24T13:20:56.143Z,3.37
2023-05-24T13:23:24.666Z,3.73
2023-05-24T13:25:53.826Z,3.30
2023-05-24T13:28:22.410Z,3.07
2023-05-24T13:30:51.215Z,3.97
2023-05-24T13:33:20.507Z,3.53
2023-05-24T13:35:50.528Z,3.90
2023-05-24T13:38:20.295Z,3.60
2023-05-24T13:40:49.582Z,3.63
2023-05-24T13:43:17.865Z,3.50
2023-05-24T13:45:46.989Z,3.23
2023-05-24T13:48:22.694Z,3.70
2023-05-24T13:50:51.289Z,3.50
2023-05-24T13:53:24.298Z,3.70
2023-05-24T13:55:53.027Z,3.97
2023-05-24T13:58:21.400Z,3.53
2023-05-24T14:00:49.704Z,3.97
2023-05-24T14:03:22.042Z,3.50
2023-05-24T14:05:50.694Z,3.50
2023-05-24T14:08:21.896Z,3.47
2023-05-24T14:10:50.209Z,3.63
2023-05-24T14:15:51.429Z,3.93
2023-05-24T14:18:22.810Z,3.60
2023-05-24T14:20:51.128Z,3.37
2023-05-24T14:23:21.030Z,3.93
2023-05-24T14:25:50.660Z,3.77
2023-05-24T14:28:18.958Z,3.80
2023-05-24T14:30:47.584Z,3.60
2023-05-24T14:33:16.399Z,3.50
2023-05-24T14:35:46.404Z,4.03
2023-05-24T14:38:14.978Z,3.80
2023-05-24T14:40:47.554Z,3.23
2023-05-24T14:43:17.372Z,3.60
2023-05-24T14:45:45.975Z,3.80
2023-05-24T14:48:16.090Z,3.90
2023-05-24T14:50:44.762Z,3.93
2023-05-24T14:53:13.459Z,3.60
2023-05-24T14:55:44.056Z,3.77
2023-05-24T14:58:16.111Z,3.67
2023-05-24T15:00:45.321Z,3.60
2023-05-24T15:03:14.969Z,3.43
2023-05-24T15:05:43.855Z,4.00
2023-05-24T15:08:12.349Z,3.73
2023-05-24T15:10:41.242Z,3.77
2023-05-24T15:13:10.367Z,3.70
2023-05-24T15:15:40.030Z,3.93
2023-05-24T15:18:08.705Z,4.20
2023-05-24T15:20:37.094Z,3.77
2023-05-24T15:23:05.914Z,3.73
2023-05-24T15:25:34.446Z,3.90
2023-05-24T15:28:03.198Z,3.93
2023-05-24T15:30:31.977Z,3.97
2023-05-24T15:33:01.512Z,3.80
2023-05-24T15:35:29.694Z,3.45
2023-05-24T15:37:58.799Z,3.47
2023-05-24T15:40:27.518Z,3.72
2023-05-24T15:42:55.811Z,3.60
2023-05-24T15:45:24.045Z,3.70
2023-05-24T15:47:52.325Z,3.47
2023-05-24T15:50:35.323Z,3.50
2023-05-24T15:53:11.198Z,3.60
2023-05-24T15:55:39.466Z,3.65
2023-05-24T15:58:09.659Z,3.58
2023-05-24T16:00:37.837Z,3.55
2023-05-24T16:03:06.627Z,3.70
2023-05-24T16:05:37.119Z,3.78
2023-05-24T16:08:05.924Z,4.07
2023-05-24T16:10:34.854Z,3.90
2023-05-24T16:13:03.117Z,3.50
2023-05-24T16:15:33.417Z,3.90
2023-05-24T16:18:01.747Z,3.97
2023-05-24T16:20:30.003Z,4.20
2023-05-24T16:22:59.895Z,3.70
2023-05-24T16:25:28.090Z,3.90
2023-05-24T16:27:56.496Z,4.20
2023-05-24T16:30:27.064Z,3.93
2023-05-24T16:32:55.312Z,4.07
2023-05-24T16:35:24.571Z,4.10
2023-05-24T16:37:56.152Z,4.13
2023-05-24T16:40:25.804Z,4.03
2023-05-24T16:42:54.477Z,4.40
2023-05-24T16:45:24.384Z,4.17
2023-05-24T16:47:52.802Z,4.00
2023-05-24T16:50:21.665Z,4.00
2023-05-24T16:52:49.812Z,4.00
2023-05-24T16:55:18.070Z,4.00
2023-05-24T16:57:48.075Z,4.07
2023-05-24T17:00:17.819Z,4.17
2023-05-24T17:02:46.166Z,3.90
2023-05-24T17:05:14.910Z,4.35
2023-05-24T17:07:43.137Z,4.32
2023-05-24T17:10:23.658Z,4.20
2023-05-24T17:12:54.208Z,4.10
2023-05-24T17:15:22.821Z,3.97
2023-05-24T17:17:52.645Z,3.90
2023-05-24T17:20:21.196Z,4.05
2023-05-24T17:22:50.279Z,3.78
2023-05-24T17:25:23.041Z,4.15
2023-05-24T17:27:52.759Z,3.72
2023-05-24T17:30:22.680Z,4.10
2023-05-24T17:32:50.961Z,4.13
2023-05-24T17:35:19.127Z,4.13
2023-05-24T17:37:47.490Z,3.97
2023-05-24T17:40:20.981Z,4.03
2023-05-24T17:42:49.299Z,4.03
2023-05-24T17:45:21.771Z,4.05
2023-05-24T17:47:49.974Z,4.13
2023-05-24T17:50:18.173Z,4.10
2023-05-24T17:52:46.312Z,4.00
2023-05-24T17:55:14.551Z,4.30
2023-05-24T17:57:42.769Z,4.23
2023-05-24T18:00:12.506Z,3.80
2023-05-24T18:02:42.652Z,4.18
2023-05-24T18:05:11.300Z,4.23
2023-05-24T18:07:39.479Z,4.50
2023-05-24T18:10:08.923Z,3.53
2023-05-24T18:12:37.764Z,4.37
2023-05-24T18:15:07.501Z,4.53
2023-05-24T18:17:36.686Z,4.13
2023-05-24T18:20:08.178Z,4.30
2023-05-24T18:22:36.507Z,4.30
2023-05-24T18:25:04.890Z,4.40
2023-05-24T18:27:33.700Z,4.00
2023-05-24T18:30:04.452Z,4.50
2023-05-24T18:32:32.861Z,4.67
2023-05-24T18:35:01.254Z,4.00
2023-05-24T18:37:31.232Z,4.80
2023-05-24T18:40:00.495Z,4.47
2023-05-24T18:42:28.906Z,4.43
2023-05-24T18:44:57.131Z,4.40
2023-05-24T18:47:26.076Z,4.93
2023-05-24T18:49:54.303Z,4.53
2023-05-24T18:52:22.928Z,4.53
2023-05-24T18:54:52.618Z,4.10
2023-05-24T18:57:21.441Z,4.50
2023-05-24T18:59:49.608Z,4.97
2023-05-24T19:02:18.515Z,4.67
2023-05-24T19:04:48.610Z,4.43
2023-05-24T19:07:17.369Z,4.73
2023-05-24T19:09:45.564Z,4.20
2023-05-24T19:12:15.815Z,4.13
2023-05-24T19:14:54.031Z,4.73
2023-05-24T19:17:22.382Z,4.80
2023-05-24T19:19:51.437Z,4.77
2023-05-24T19:22:19.754Z,4.83
2023-05-24T19:24:47.994Z,4.97
2023-05-24T19:27:17.806Z,5.00
2023-05-24T19:29:46.039Z,4.73
2023-05-24T19:32:14.807Z,4.90
2023-05-24T19:34:43.979Z,4.63
2023-05-24T19:37:12.200Z,4.67
2023-05-24T19:39:41.012Z,4.90
2023-05-24T19:42:11.231Z,4.93
2023-05-24T19:44:40.837Z,4.87
2023-05-24T19:47:09.007Z,5.23
2023-05-24T19:49:37.190Z,4.80
2023-05-24T19:52:05.343Z,4.90
2023-05-24T19:54:33.540Z,4.80
2023-05-24T19:57:02.057Z,4.67
2023-05-24T19:59:30.283Z,4.50
2023-05-24T20:02:00.132Z,5.10
2023-05-24T20:04:28.428Z,4.93
2023-05-24T20:06:56.611Z,4.47
2023-05-24T20:09:24.944Z,4.43
2023-05-24T20:11:57.042Z,4.70
2023-05-24T20:14:25.239Z,4.60
2023-05-24T20:16:53.400Z,4.43
2023-05-24T20:19:23.060Z,4.43
2023-05-24T20:21:51.250Z,5.20
2023-05-24T20:24:19.438Z,4.53
2023-05-24T20:26:48.228Z,4.37
2023-05-24T20:29:16.421Z,4.57
2023-05-24T20:31:44.696Z,4.63
2023-05-24T20:34:14.780Z,4.80
2023-05-24T20:36:44.489Z,4.57
2023-05-24T20:39:13.232Z,4.43
2023-05-24T20:41:41.571Z,4.63
2023-05-24T20:44:10.890Z,4.70
2023-05-24T20:46:39.186Z,4.13
2023-05-24T20:49:15.983Z,4.97
2023-05-24T20:51:45.854Z,4.30
2023-05-24T20:54:14.215Z,4.60
2023-05-24T20:56:44.093Z,4.67
2023-05-24T20:59:12.304Z,4.47
2023-05-24T21:01:40.712Z,4.90
2023-05-24T21:04:09.062Z,4.57
2023-05-24T21:06:37.300Z,5.13
2023-05-24T21:09:06.942Z,4.87
2023-05-24T21:11:35.283Z,4.97
2023-05-24T21:14:03.751Z,4.47
2023-05-24T21:16:32.701Z,4.77
2023-05-24T21:19:02.056Z,5.00
2023-05-24T21:21:30.309Z,4.77
2023-05-24T21:23:59.377Z,5.70
2023-05-24T21:26:29.167Z,4.77
2023-05-24T21:28:57.337Z,5.20
2023-05-24T21:31:27.070Z,4.60
2023-05-24T21:33:56.807Z,5.40
2023-05-24T21:36:25.842Z,4.77
2023-05-24T21:38:59.244Z,4.77
2023-05-24T21:41:29.091Z,4.73
2023-05-24T21:43:57.526Z,4.93
2023-05-24T21:46:26.983Z,5.00
2023-05-24T21:48:55.433Z,4.57
2023-05-24T21:51:23.688Z,4.90
2023-05-24T21:53:52.247Z,5.20
2023-05-24T21:56:21.399Z,4.70
2023-05-24T21:58:51.600Z,4.90
2023-05-24T22:01:19.843Z,5.00
2023-05-24T22:03:52.488Z,5.20
2023-05-24T22:06:20.733Z,4.40
2023-05-24T22:08:49.409Z,4.70
2023-05-24T22:11:17.980Z,5.17
2023-05-24T22:13:47.365Z,5.13
2023-05-24T22:16:17.006Z,5.77
2023-05-24T22:18:45.212Z,6.03
2023-05-24T22:21:14.497Z,5.30
2023-05-24T22:23:44.103Z,5.37
2023-05-24T22:26:12.933Z,5.17
2023-05-24T22:28:52.634Z,5.47
2023-05-24T22:31:22.734Z,5.63
2023-05-24T22:33:51.309Z,5.50
2023-05-24T22:36:21.016Z,5.47
2023-05-24T22:38:49.253Z,5.03
2023-05-24T22:41:18.026Z,5.90
2023-05-24T22:43:46.300Z,5.60
2023-05-24T22:46:14.957Z,5.33
2023-05-24T22:48:44.755Z,5.30
2023-05-24T22:51:13.350Z,4.97
2023-05-24T22:53:41.584Z,5.13
2023-05-24T22:56:10.533Z,5.63
2023-05-24T22:58:39.016Z,4.23
2023-05-24T23:01:07.455Z,5.23
2023-05-24T23:03:35.946Z,4.27
2023-05-24T23:06:12.160Z,4.73
2023-05-24T23:08:40.567Z,4.57
2023-05-24T23:11:10.558Z,4.70
2023-05-24T23:13:42.413Z,4.50
2023-05-24T23:16:12.517Z,4.67
2023-05-24T23:18:43.033Z,4.23
2023-05-24T23:21:14.509Z,4.67
2023-05-24T23:23:42.729Z,3.90
2023-05-24T23:26:12.712Z,4.40
2023-05-24T23:28:40.945Z,3.80
2023-05-24T23:31:09.282Z,4.17
2023-05-24T23:33:38.099Z,3.77
2023-05-24T23:36:07.974Z,4.07
2023-05-24T23:38:37.635Z,3.20
2023-05-24T23:41:06.054Z,3.90
2023-05-24T23:43:34.314Z,3.97
2023-05-24T23:46:03.242Z,3.93
2023-05-24T23:48:31.806Z,3.50
2023-05-24T23:51:00.588Z,3.83
2023-05-24T23:53:28.801Z,3.30
2023-05-24T23:56:13.820Z,3.90
2023-05-24T23:58:42.304Z,3.90
